createdAt,value
2023-05-19T00:00:19.789Z,1018.09
2023-05-19T00:01:19.934Z,1018.03
2023-05-19T00:02:20.129Z,1018.05
2023-05-19T00:03:21.271Z,1018.10
2023-05-19T00:04:20.474Z,1018.06
2023-05-19T00:05:20.686Z,1018.09
2023-05-19T00:06:20.884Z,1018.07
2023-05-19T00:07:20.942Z,1018.05
2023-05-19T00:08:21.093Z,1018.05
2023-05-19T00:09:21.244Z,1018.00
2023-05-19T00:10:21.393Z,1018.04
2023-05-19T00:11:22.054Z,1018.06
2023-05-19T00:12:21.720Z,1018.08
2023-05-19T00:13:22.674Z,1018.04
2023-05-19T00:14:22.055Z,1018.04
2023-05-19T00:15:22.229Z,1018.08
2023-05-19T00:16:22.431Z,1018.03
2023-05-19T00:17:23.698Z,1018.02
2023-05-19T00:18:22.820Z,1017.97
2023-05-19T00:19:23.137Z,1018.06
2023-05-19T00:20:23.222Z,1017.95
2023-05-19T00:21:23.406Z,1017.97
2023-05-19T00:22:24.178Z,1017.96
2023-05-19T00:23:23.717Z,1017.99
2023-05-19T00:24:24.613Z,1017.98
2023-05-19T00:25:24.002Z,1018.04
2023-05-19T00:26:24.166Z,1018.00
2023-05-19T00:27:25.678Z,1018.03
2023-05-19T00:28:26.181Z,1018.06
2023-05-19T00:29:25.681Z,1018.01
2023-05-19T00:30:25.546Z,1018.09
2023-05-19T00:31:25.032Z,1018.03
2023-05-19T00:32:25.079Z,1018.01
2023-05-19T00:33:25.257Z,1018.08
2023-05-19T00:34:25.751Z,1018.04
2023-05-19T00:35:25.675Z,1018.03
2023-05-19T00:36:25.854Z,1018.00
2023-05-19T00:37:26.039Z,1018.04
2023-05-19T00:38:26.202Z,1018.07
2023-05-19T00:39:26.372Z,1018.12
2023-05-19T00:40:26.735Z,1018.05
2023-05-19T00:41:26.807Z,1018.00
2023-05-19T00:42:26.982Z,1018.07
2023-05-19T00:43:27.146Z,1018.06
2023-05-19T00:44:28.188Z,1018.07
2023-05-19T00:45:27.440Z,1018.06
2023-05-19T00:46:27.626Z,1018.08
2023-05-19T00:47:27.835Z,1018.06
2023-05-19T00:48:27.993Z,1018.08
2023-05-19T00:49:28.137Z,1018.17
2023-05-19T00:50:28.283Z,1018.10
2023-05-19T00:51:28.452Z,1018.10
2023-05-19T00:52:29.223Z,1018.17
2023-05-19T00:53:28.724Z,1018.08
2023-05-19T00:54:28.901Z,1018.08
2023-05-19T00:55:29.054Z,1018.12
2023-05-19T00:56:29.267Z,1018.10
2023-05-19T00:57:29.436Z,1018.13
2023-05-19T00:58:29.607Z,1018.11
2023-05-19T00:59:29.757Z,1018.12
2023-05-19T01:00:30.246Z,1018.08
2023-05-19T01:01:30.268Z,1018.11
2023-05-19T01:02:30.254Z,1018.06
2023-05-19T01:03:30.429Z,1018.12
2023-05-19T01:04:31.240Z,1018.15
2023-05-19T01:05:30.685Z,1018.09
2023-05-19T01:06:30.884Z,1018.12
2023-05-19T01:07:31.063Z,1018.14
2023-05-19T01:08:32.239Z,1018.16
2023-05-19T01:09:32.254Z,1018.13
2023-05-19T01:10:31.833Z,1018.11
2023-05-19T01:11:32.562Z,1018.09
2023-05-19T01:12:32.697Z,1018.15
2023-05-19T01:13:32.226Z,1018.12
2023-05-19T01:14:33.204Z,1018.15
2023-05-19T01:15:32.616Z,1018.18
2023-05-19T01:16:32.922Z,1018.18
2023-05-19T01:17:33.034Z,1018.16
2023-05-19T01:18:33.234Z,1018.15
2023-05-19T01:19:33.422Z,1018.16
2023-05-19T01:20:34.314Z,1018.12
2023-05-19T01:21:33.798Z,1018.16
2023-05-19T01:22:34.027Z,1018.15
2023-05-19T01:23:34.732Z,1018.14
2023-05-19T01:24:34.414Z,1018.12
2023-05-19T01:25:34.621Z,1018.15
2023-05-19T01:26:34.821Z,1018.13
2023-05-19T01:27:35.047Z,1018.07
2023-05-19T01:28:36.198Z,1018.13
2023-05-19T01:29:35.336Z,1018.16
2023-05-19T01:30:35.638Z,1018.20
2023-05-19T01:31:37.229Z,1018.11
2023-05-19T01:32:36.272Z,1018.15
2023-05-19T01:33:36.700Z,1018.11
2023-05-19T01:34:37.236Z,1018.13
2023-05-19T01:35:39.061Z,1018.11
2023-05-19T01:36:37.084Z,1018.16
2023-05-19T01:37:36.719Z,1018.13
2023-05-19T01:38:36.906Z,1018.07
2023-05-19T01:39:37.056Z,1018.07
2023-05-19T01:40:37.195Z,1018.15
2023-05-19T01:41:37.316Z,1018.19
2023-05-19T01:42:37.507Z,1018.16
2023-05-19T01:43:38.215Z,1018.24
2023-05-19T01:44:37.888Z,1018.22
2023-05-19T01:45:38.100Z,1018.24
2023-05-19T01:46:39.241Z,1018.23
2023-05-19T01:47:40.732Z,1018.25
2023-05-19T01:48:38.721Z,1018.21
2023-05-19T01:49:38.892Z,1018.24
2023-05-19T01:50:39.062Z,1018.25
2023-05-19T01:51:40.211Z,1018.23
2023-05-19T01:52:39.377Z,1018.23
2023-05-19T01:53:39.507Z,1018.22
2023-05-19T01:54:40.572Z,1018.23
2023-05-19T01:55:39.828Z,1018.19
2023-05-19T01:56:41.210Z,1018.23
2023-05-19T01:57:40.092Z,1018.20
2023-05-19T01:58:40.248Z,1018.23
2023-05-19T01:59:41.218Z,1018.22
2023-05-19T02:00:41.253Z,1018.22
2023-05-19T02:01:40.954Z,1018.13
2023-05-19T02:02:41.020Z,1018.21
2023-05-19T02:03:41.267Z,1018.17
2023-05-19T02:04:42.310Z,1018.23
2023-05-19T02:05:41.637Z,1018.22
2023-05-19T02:06:41.822Z,1018.22
2023-05-19T02:07:42.030Z,1018.26
2023-05-19T02:08:42.191Z,1018.24
2023-05-19T02:09:42.399Z,1018.29
2023-05-19T02:10:42.599Z,1018.33
2023-05-19T02:11:42.782Z,1018.30
2023-05-19T02:12:42.970Z,1018.34
2023-05-19T02:13:43.152Z,1018.29
2023-05-19T02:14:43.328Z,1018.34
2023-05-19T02:15:43.539Z,1018.36
2023-05-19T02:16:43.727Z,1018.29
2023-05-19T02:17:43.951Z,1018.27
2023-05-19T02:18:44.315Z,1018.24
2023-05-19T02:19:44.173Z,1018.33
2023-05-19T02:20:44.367Z,1018.28
2023-05-19T02:21:45.209Z,1018.32
2023-05-19T02:22:45.718Z,1018.35
2023-05-19T02:23:45.751Z,1018.34
2023-05-19T02:24:45.193Z,1018.40
2023-05-19T02:25:46.228Z,1018.37
2023-05-19T02:26:45.616Z,1018.41
2023-05-19T02:27:47.213Z,1018.34
2023-05-19T02:28:46.710Z,1018.41
2023-05-19T02:29:46.738Z,1018.39
2023-05-19T02:30:46.247Z,1018.38
2023-05-19T02:31:46.411Z,1018.37
2023-05-19T02:32:47.315Z,1018.37
2023-05-19T02:33:47.716Z,1018.38
2023-05-19T02:34:47.719Z,1018.36
2023-05-19T02:35:47.126Z,1018.37
2023-05-19T02:36:47.277Z,1018.38
2023-05-19T02:37:47.579Z,1018.39
2023-05-19T02:38:47.641Z,1018.38
2023-05-19T02:39:47.790Z,1018.31
2023-05-19T02:40:47.949Z,1018.35
2023-05-19T02:41:48.130Z,1018.32
2023-05-19T02:42:48.322Z,1018.36
2023-05-19T02:43:48.484Z,1018.37
2023-05-19T02:44:49.238Z,1018.42
2023-05-19T02:45:48.801Z,1018.34
2023-05-19T02:46:49.784Z,1018.33
2023-05-19T02:47:49.815Z,1018.34
2023-05-19T02:48:49.373Z,1018.37
2023-05-19T02:49:49.555Z,1018.34
2023-05-19T02:50:50.769Z,1018.32
2023-05-19T02:51:49.926Z,1018.38
2023-05-19T02:52:50.135Z,1018.28
2023-05-19T02:53:50.324Z,1018.27
2023-05-19T02:54:50.492Z,1018.31
2023-05-19T02:55:50.743Z,1018.35
2023-05-19T02:56:50.950Z,1018.35
2023-05-19T02:57:51.173Z,1018.37
2023-05-19T02:58:52.257Z,1018.36
2023-05-19T02:59:52.716Z,1018.36
2023-05-19T03:00:51.748Z,1018.41
2023-05-19T03:01:51.976Z,1018.32
2023-05-19T03:02:52.145Z,1018.34
2023-05-19T03:03:52.997Z,1018.36
2023-05-19T03:04:52.412Z,1018.38
2023-05-19T03:05:52.585Z,1018.33
2023-05-19T03:06:52.741Z,1018.32
2023-05-19T03:07:53.724Z,1018.30
2023-05-19T03:08:53.796Z,1018.32
2023-05-19T03:09:54.214Z,1018.33
2023-05-19T03:10:54.262Z,1018.36
2023-05-19T03:11:54.264Z,1018.37
2023-05-19T03:12:54.721Z,1018.34
2023-05-19T03:13:54.009Z,1018.34
2023-05-19T03:14:55.214Z,1018.33
2023-05-19T03:15:55.406Z,1018.34
2023-05-19T03:16:54.628Z,1018.36
2023-05-19T03:17:54.732Z,1018.32
2023-05-19T03:18:54.876Z,1018.32
2023-05-19T03:19:54.940Z,1018.27
2023-05-19T03:20:55.772Z,1018.32
2023-05-19T03:21:56.267Z,1018.31
2023-05-19T03:22:55.559Z,1018.28
2023-05-19T03:23:57.234Z,1018.29
2023-05-19T03:24:55.979Z,1018.26
2023-05-19T03:25:56.719Z,1018.25
2023-05-19T03:26:56.771Z,1018.22
2023-05-19T03:27:56.456Z,1018.27
2023-05-19T03:28:56.650Z,1018.20
2023-05-19T03:29:57.729Z,1018.25
2023-05-19T03:30:57.722Z,1018.26
2023-05-19T03:31:57.116Z,1018.21
2023-05-19T03:32:57.379Z,1018.20
2023-05-19T03:33:58.509Z,1018.21
2023-05-19T03:34:58.241Z,1018.25
2023-05-19T03:35:57.888Z,1018.15
2023-05-19T03:36:58.006Z,1018.28
2023-05-19T03:37:58.211Z,1018.28
2023-05-19T03:38:58.403Z,1018.32
2023-05-19T03:39:59.271Z,1018.27
2023-05-19T03:40:58.822Z,1018.24
2023-05-19T03:41:59.029Z,1018.29
2023-05-19T03:42:59.240Z,1018.21
2023-05-19T03:43:59.458Z,1018.25
2023-05-19T03:45:00.282Z,1018.27
2023-05-19T03:45:59.901Z,1018.26
2023-05-19T03:47:01.731Z,1018.19
2023-05-19T03:48:00.297Z,1018.30
2023-05-19T03:49:00.358Z,1018.30
2023-05-19T03:50:00.522Z,1018.30
2023-05-19T03:51:00.707Z,1018.29
2023-05-19T03:52:00.865Z,1018.28
2023-05-19T03:53:01.046Z,1018.25
2023-05-19T03:54:23.195Z,1018.29
2023-05-19T03:55:03.234Z,1018.29
2023-05-19T03:56:01.473Z,1018.28
2023-05-19T03:57:02.293Z,1018.28
2023-05-19T03:58:01.803Z,1018.30
2023-05-19T03:59:02.003Z,1018.25
2023-05-19T04:00:02.180Z,1018.34
2023-05-19T04:01:03.112Z,1018.28
2023-05-19T04:02:03.341Z,1018.27
2023-05-19T04:03:02.752Z,1018.29
2023-05-19T04:04:02.865Z,1018.30
2023-05-19T04:05:03.735Z,1018.27
2023-05-19T04:06:04.281Z,1018.25
2023-05-19T04:07:03.432Z,1018.24
2023-05-19T04:08:03.651Z,1018.23
2023-05-19T04:09:04.743Z,1018.21
2023-05-19T04:10:04.754Z,1018.24
2023-05-19T04:11:04.179Z,1018.22
2023-05-19T04:12:05.281Z,1018.30
2023-05-19T04:13:05.756Z,1018.24
2023-05-19T04:14:04.803Z,1018.28
2023-05-19T04:15:05.009Z,1018.29
2023-05-19T04:16:05.245Z,1018.27
2023-05-19T04:17:05.436Z,1018.33
2023-05-19T04:18:05.694Z,1018.35
2023-05-19T04:19:06.880Z,1018.27
2023-05-19T04:20:05.988Z,1018.27
2023-05-19T04:21:06.240Z,1018.28
2023-05-19T04:22:06.320Z,1018.30
2023-05-19T04:23:06.531Z,1018.17
2023-05-19T04:24:07.753Z,1018.23
2023-05-19T04:25:06.930Z,1018.21
2023-05-19T04:26:07.131Z,1018.22
2023-05-19T04:27:07.342Z,1018.23
2023-05-19T04:28:07.506Z,1018.15
2023-05-19T04:29:07.712Z,1018.06
2023-05-19T04:30:10.243Z,1018.04
2023-05-19T04:31:08.775Z,1018.03
2023-05-19T04:32:08.220Z,1018.04
2023-05-19T04:33:08.454Z,1018.03
2023-05-19T04:34:08.506Z,1017.98
2023-05-19T04:35:08.694Z,1017.96
2023-05-19T04:36:08.887Z,1017.94
2023-05-19T04:37:09.074Z,1017.91
2023-05-19T04:38:09.247Z,1017.69
2023-05-19T04:39:10.283Z,1017.45
2023-05-19T04:40:09.540Z,1017.48
2023-05-19T04:41:09.717Z,1017.49
2023-05-19T04:42:09.887Z,1017.38
2023-05-19T04:43:10.038Z,1017.36
2023-05-19T04:44:10.771Z,1017.20
2023-05-19T04:45:11.393Z,1017.07
2023-05-19T04:46:13.225Z,1016.96
2023-05-19T04:47:10.770Z,1016.91
2023-05-19T04:48:11.785Z,1016.76
2023-05-19T04:49:11.785Z,1016.49
2023-05-19T04:50:11.214Z,1016.30
2023-05-19T04:51:11.365Z,1016.22
2023-05-19T04:52:11.545Z,1016.27
2023-05-19T04:53:11.686Z,1016.42
2023-05-19T04:54:11.839Z,1016.25
2023-05-19T04:55:11.981Z,1016.14
2023-05-19T04:56:12.212Z,1015.97
2023-05-19T04:57:12.379Z,1015.70
2023-05-19T04:58:13.287Z,1015.60
2023-05-19T04:59:12.773Z,1015.68
2023-05-19T05:00:12.897Z,1015.83
2023-05-19T05:01:13.037Z,1015.99
2023-05-19T05:02:13.241Z,1015.95
2023-05-19T05:03:13.440Z,1016.02
2023-05-19T05:04:13.618Z,1016.11
2023-05-19T05:05:13.772Z,1016.20
2023-05-19T05:06:13.927Z,1016.26
2023-05-19T05:07:14.172Z,1016.33
2023-05-19T05:08:14.336Z,1016.39
2023-05-19T05:09:15.247Z,1016.44
2023-05-19T05:10:14.726Z,1016.46
2023-05-19T05:11:15.743Z,1016.49
2023-05-19T05:12:15.811Z,1016.44
2023-05-19T05:13:17.248Z,1016.52
2023-05-19T05:14:15.802Z,1016.52
2023-05-19T05:15:15.589Z,1016.53
2023-05-19T05:16:16.333Z,1016.49
2023-05-19T05:17:15.901Z,1016.46
2023-05-19T05:18:16.743Z,1016.31
2023-05-19T05:19:16.324Z,1016.22
2023-05-19T05:20:17.257Z,1016.27
2023-05-19T05:21:16.664Z,1016.14
2023-05-19T05:22:17.743Z,1016.16
2023-05-19T05:23:17.025Z,1016.17
2023-05-19T05:24:17.173Z,1016.18
2023-05-19T05:25:18.750Z,1016.19
2023-05-19T05:26:17.502Z,1016.23
2023-05-19T05:27:17.658Z,1016.25
2023-05-19T05:28:18.802Z,1016.27
2023-05-19T05:29:18.058Z,1016.32
2023-05-19T05:30:18.253Z,1016.32
2023-05-19T05:31:18.462Z,1016.38
2023-05-19T05:32:18.689Z,1016.34
2023-05-19T05:33:18.928Z,1016.34
2023-05-19T05:34:18.944Z,1016.39
2023-05-19T05:35:19.111Z,1016.39
2023-05-19T05:36:19.309Z,1016.34
2023-05-19T05:37:19.806Z,1016.34
2023-05-19T05:38:19.747Z,1016.32
2023-05-19T05:39:19.944Z,1016.26
2023-05-19T05:40:20.111Z,1016.31
2023-05-19T05:41:20.367Z,1016.24
2023-05-19T05:42:20.581Z,1016.30
2023-05-19T05:43:22.619Z,1016.33
2023-05-19T05:44:20.869Z,1016.26
2023-05-19T05:45:21.035Z,1016.23
2023-05-19T05:46:21.824Z,1016.25
2023-05-19T05:47:21.398Z,1016.25
2023-05-19T05:48:21.567Z,1016.28
2023-05-19T05:49:21.721Z,1016.24
2023-05-19T05:50:21.888Z,1016.18
2023-05-19T05:51:22.753Z,1016.17
2023-05-19T05:52:22.799Z,1016.15
2023-05-19T05:53:22.424Z,1016.09
2023-05-19T05:54:22.585Z,1016.06
2023-05-19T05:55:23.295Z,1016.02
2023-05-19T05:56:23.520Z,1015.98
2023-05-19T05:57:23.181Z,1015.96
2023-05-19T05:58:23.376Z,1015.93
2023-05-19T05:59:23.531Z,1015.90
2023-05-19T06:00:24.717Z,1015.85
2023-05-19T06:01:23.966Z,1015.87
2023-05-19T06:02:24.098Z,1015.78
2023-05-19T06:03:25.251Z,1015.80
2023-05-19T06:04:26.266Z,1015.80
2023-05-19T06:05:24.700Z,1015.77
2023-05-19T06:06:24.824Z,1015.80
2023-05-19T06:07:24.969Z,1015.73
2023-05-19T06:08:25.162Z,1015.72
2023-05-19T06:09:26.272Z,1015.73
2023-05-19T06:10:25.532Z,1015.66
2023-05-19T06:11:25.732Z,1015.69
2023-05-19T06:12:25.911Z,1015.63
2023-05-19T06:13:26.109Z,1015.64
2023-05-19T06:14:26.284Z,1015.61
2023-05-19T06:15:26.493Z,1015.56
2023-05-19T06:16:26.759Z,1015.49
2023-05-19T06:17:27.787Z,1015.40
2023-05-19T06:18:27.003Z,1015.33
2023-05-19T06:19:27.226Z,1015.34
2023-05-19T06:20:28.271Z,1015.34
2023-05-19T06:21:27.680Z,1015.38
2023-05-19T06:22:28.871Z,1015.35
2023-05-19T06:23:28.333Z,1015.41
2023-05-19T06:24:28.107Z,1015.37
2023-05-19T06:25:28.265Z,1015.35
2023-05-19T06:26:28.443Z,1015.33
2023-05-19T06:27:29.300Z,1015.28
2023-05-19T06:28:31.272Z,1015.28
2023-05-19T06:29:29.002Z,1015.30
2023-05-19T06:30:29.295Z,1015.26
2023-05-19T06:31:29.434Z,1015.26
2023-05-19T06:32:29.634Z,1015.26
2023-05-19T06:33:30.773Z,1015.25
2023-05-19T06:34:30.047Z,1015.23
2023-05-19T06:35:30.791Z,1015.20
2023-05-19T06:36:31.284Z,1015.21
2023-05-19T06:37:32.273Z,1015.17
2023-05-19T06:38:31.784Z,1015.19
2023-05-19T06:39:31.036Z,1015.13
2023-05-19T06:40:31.560Z,1015.09
2023-05-19T06:41:31.396Z,1015.20
2023-05-19T06:42:32.144Z,1015.14
2023-05-19T06:43:32.316Z,1015.14
2023-05-19T06:44:31.977Z,1015.09
2023-05-19T06:45:32.796Z,1015.14
2023-05-19T06:46:32.312Z,1015.09
2023-05-19T06:47:32.582Z,1015.02
2023-05-19T06:48:33.317Z,1014.99
2023-05-19T06:49:33.781Z,1014.97
2023-05-19T06:50:33.105Z,1014.90
2023-05-19T06:51:34.141Z,1014.92
2023-05-19T06:52:34.796Z,1014.91
2023-05-19T06:53:34.316Z,1014.87
2023-05-19T06:54:33.724Z,1014.81
2023-05-19T06:55:37.112Z,1014.80
2023-05-19T06:56:35.005Z,1014.80
2023-05-19T06:57:34.820Z,1014.88
2023-05-19T06:58:34.825Z,1014.78
2023-05-19T06:59:34.469Z,1014.71
2023-05-19T07:00:35.524Z,1014.75
2023-05-19T07:01:35.802Z,1014.61
2023-05-19T07:02:35.038Z,1014.63
2023-05-19T07:03:35.389Z,1014.58
2023-05-19T07:04:36.289Z,1014.44
2023-05-19T07:05:35.586Z,1014.32
2023-05-19T07:06:35.777Z,1013.80
2023-05-19T07:07:35.981Z,1013.66
2023-05-19T07:08:36.143Z,1013.68
2023-05-19T07:09:36.332Z,1013.70
2023-05-19T07:10:36.513Z,1013.42
2023-05-19T07:11:36.669Z,1012.64
2023-05-19T07:12:36.828Z,1011.98
2023-05-19T07:13:36.995Z,1011.82
2023-05-19T07:14:37.168Z,1012.08
2023-05-19T07:15:38.284Z,1012.38
2023-05-19T07:16:38.360Z,1012.51
2023-05-19T07:17:37.791Z,1012.58
2023-05-19T07:18:38.811Z,1012.81
2023-05-19T07:19:38.098Z,1012.96
2023-05-19T07:20:38.263Z,1013.09
2023-05-19T07:21:38.841Z,1013.13
2023-05-19T07:22:38.630Z,1013.17
2023-05-19T07:23:38.805Z,1013.20
2023-05-19T07:24:38.971Z,1013.19
2023-05-19T07:25:39.115Z,1013.26
2023-05-19T07:26:39.833Z,1013.32
2023-05-19T07:27:39.474Z,1013.21
2023-05-19T07:28:41.588Z,1013.16
2023-05-19T07:29:41.778Z,1012.99
2023-05-19T07:30:40.826Z,1012.98
2023-05-19T07:31:40.228Z,1013.08
2023-05-19T07:32:42.313Z,1013.03
2023-05-19T07:33:40.550Z,1013.06
2023-05-19T07:34:40.702Z,1013.00
2023-05-19T07:35:40.886Z,1012.88
2023-05-19T07:36:41.000Z,1012.36
2023-05-19T07:37:41.830Z,1012.21
2023-05-19T07:38:41.364Z,1012.16
2023-05-19T07:39:41.522Z,1012.34
2023-05-19T07:40:41.843Z,1012.45
2023-05-19T07:41:41.860Z,1012.63
2023-05-19T07:42:42.047Z,1012.77
2023-05-19T07:43:42.260Z,1012.88
2023-05-19T07:44:43.294Z,1012.75
2023-05-19T07:45:42.629Z,1012.68
2023-05-19T07:46:43.373Z,1012.65
2023-05-19T07:47:43.835Z,1012.62
2023-05-19T07:48:43.168Z,1012.42
2023-05-19T07:49:43.837Z,1012.58
2023-05-19T07:50:43.517Z,1012.39
2023-05-19T07:51:43.673Z,1012.29
2023-05-19T07:52:44.829Z,1012.11
2023-05-19T07:53:44.348Z,1012.23
2023-05-19T07:54:44.156Z,1012.29
2023-05-19T07:56:17.755Z,1012.34
2023-05-19T07:56:44.543Z,1012.43
2023-05-19T07:57:44.707Z,1012.56
2023-05-19T07:58:45.373Z,1012.55
2023-05-19T07:59:45.861Z,1012.66
2023-05-19T08:00:45.913Z,1012.64
2023-05-19T08:01:45.470Z,1012.74
2023-05-19T08:02:45.776Z,1012.74
2023-05-19T08:03:45.843Z,1012.73
2023-05-19T08:04:45.973Z,1012.75
2023-05-19T08:05:46.874Z,1012.78
2023-05-19T08:06:46.399Z,1012.82
2023-05-19T08:07:46.621Z,1012.86
2023-05-19T08:08:47.325Z,1012.82
2023-05-19T08:09:47.001Z,1012.86
2023-05-19T08:10:47.871Z,1012.89
2023-05-19T08:11:47.390Z,1012.89
2023-05-19T08:12:48.690Z,1012.86
2023-05-19T08:13:47.736Z,1012.89
2023-05-19T08:14:47.905Z,1012.88
2023-05-19T08:15:48.912Z,1012.89
2023-05-19T08:16:49.035Z,1012.98
2023-05-19T08:17:49.713Z,1012.96
2023-05-19T08:18:48.807Z,1013.00
2023-05-19T08:19:48.911Z,1012.98
2023-05-19T08:20:49.879Z,1013.01
2023-05-19T08:21:49.310Z,1012.92
2023-05-19T08:22:50.372Z,1012.88
2023-05-19T08:23:50.338Z,1012.96
2023-05-19T08:24:49.871Z,1012.93
2023-05-19T08:25:50.892Z,1012.92
2023-05-19T08:26:50.876Z,1012.88
2023-05-19T08:27:50.918Z,1012.95
2023-05-19T08:28:50.463Z,1012.90
2023-05-19T08:29:50.667Z,1012.80
2023-05-19T08:30:51.372Z,1012.88
2023-05-19T08:31:53.152Z,1012.85
2023-05-19T08:32:51.913Z,1012.83
2023-05-19T08:33:51.894Z,1012.79
2023-05-19T08:34:52.344Z,1012.82
2023-05-19T08:35:51.760Z,1012.77
2023-05-19T08:36:52.880Z,1012.70
2023-05-19T08:37:52.140Z,1012.74
2023-05-19T08:38:52.883Z,1012.81
2023-05-19T08:39:52.524Z,1012.71
2023-05-19T08:40:52.935Z,1012.69
2023-05-19T08:41:52.900Z,1012.65
2023-05-19T08:42:53.095Z,1012.58
2023-05-19T08:43:54.699Z,1012.60
2023-05-19T08:44:53.421Z,1012.60
2023-05-19T08:45:54.334Z,1012.62
2023-05-19T08:46:54.471Z,1012.61
2023-05-19T08:47:54.021Z,1012.70
2023-05-19T08:48:53.986Z,1012.63
2023-05-19T08:49:54.154Z,1012.57
2023-05-19T08:50:54.356Z,1012.55
2023-05-19T08:51:54.499Z,1012.49
2023-05-19T08:52:54.721Z,1012.51
2023-05-19T08:53:55.887Z,1012.49
2023-05-19T08:54:55.864Z,1012.43
2023-05-19T08:55:55.246Z,1012.49
2023-05-19T08:56:55.446Z,1012.43
2023-05-19T08:57:55.892Z,1012.49
2023-05-19T08:58:56.384Z,1012.43
2023-05-19T08:59:58.351Z,1012.47
2023-05-19T09:00:56.146Z,1012.44
2023-05-19T09:01:56.235Z,1012.40
2023-05-19T09:03:06.066Z,1012.41
2023-05-19T09:03:58.730Z,1012.36
2023-05-19T09:04:57.521Z,1012.30
2023-05-19T09:05:56.952Z,1012.35
2023-05-19T09:06:57.062Z,1012.34
2023-05-19T09:07:57.285Z,1012.35
2023-05-19T09:08:58.343Z,1012.36
2023-05-19T09:10:00.211Z,1012.20
2023-05-19T09:10:57.831Z,1012.19
2023-05-19T09:11:59.342Z,1012.21
2023-05-19T09:12:58.908Z,1012.16
2023-05-19T09:13:59.282Z,1012.10
2023-05-19T09:14:59.391Z,1012.12
2023-05-19T09:15:58.943Z,1012.16
2023-05-19T09:16:59.972Z,1012.11
2023-05-19T09:17:59.931Z,1012.14
2023-05-19T09:18:59.469Z,1012.15
2023-05-19T09:19:59.698Z,1012.17
2023-05-19T09:20:59.847Z,1012.15
2023-05-19T09:22:00.893Z,1012.13
2023-05-19T09:23:00.892Z,1012.15
2023-05-19T09:24:00.393Z,1012.12
2023-05-19T09:25:00.601Z,1012.06
2023-05-19T09:26:00.904Z,1012.02
2023-05-19T09:27:01.890Z,1012.02
2023-05-19T09:28:01.890Z,1011.99
2023-05-19T09:29:01.380Z,1012.05
2023-05-19T09:30:01.584Z,1012.07
2023-05-19T09:31:01.769Z,1012.06
2023-05-19T09:32:01.965Z,1012.00
2023-05-19T09:33:02.944Z,1011.99
2023-05-19T09:34:02.846Z,1011.88
2023-05-19T09:35:03.423Z,1011.84
2023-05-19T09:36:02.688Z,1011.75
2023-05-19T09:37:02.826Z,1011.74
2023-05-19T09:38:03.915Z,1011.79
2023-05-19T09:39:04.404Z,1011.79
2023-05-19T09:40:03.373Z,1011.74
2023-05-19T09:41:04.396Z,1011.69
2023-05-19T09:42:03.765Z,1011.63
2023-05-19T09:43:04.851Z,1011.62
2023-05-19T09:44:04.108Z,1011.60
2023-05-19T09:45:04.237Z,1011.63
2023-05-19T09:46:04.421Z,1011.65
2023-05-19T09:47:06.344Z,1011.76
2023-05-19T09:48:05.566Z,1011.65
2023-05-19T09:49:05.053Z,1011.60
2023-05-19T09:50:05.418Z,1011.67
2023-05-19T09:51:05.934Z,1011.53
2023-05-19T09:52:06.472Z,1011.59
2023-05-19T09:53:06.359Z,1011.49
2023-05-19T09:54:05.757Z,1011.47
2023-05-19T09:55:05.940Z,1011.52
2023-05-19T09:56:06.107Z,1011.47
2023-05-19T09:57:08.313Z,1011.46
2023-05-19T09:58:07.874Z,1011.42
2023-05-19T09:59:06.953Z,1011.42
2023-05-19T10:00:06.785Z,1011.41
2023-05-19T10:01:07.067Z,1011.44
2023-05-19T10:02:07.180Z,1011.37
2023-05-19T10:03:07.406Z,1011.39
2023-05-19T10:04:08.445Z,1011.38
2023-05-19T10:05:07.725Z,1011.28
2023-05-19T10:06:07.764Z,1011.14
2023-05-19T10:07:07.937Z,1011.12
2023-05-19T10:08:08.122Z,1011.05
2023-05-19T10:09:08.905Z,1010.89
2023-05-19T10:10:08.439Z,1010.86
2023-05-19T10:11:08.619Z,1010.75
2023-05-19T10:12:08.791Z,1010.65
2023-05-19T10:13:09.901Z,1010.58
2023-05-19T10:14:09.907Z,1010.53
2023-05-19T10:15:09.304Z,1010.40
2023-05-19T10:16:09.521Z,1010.40
2023-05-19T10:17:09.613Z,1010.35
2023-05-19T10:18:10.005Z,1010.21
2023-05-19T10:19:10.022Z,1010.16
2023-05-19T10:20:10.155Z,1010.12
2023-05-19T10:21:10.903Z,1010.09
2023-05-19T10:22:10.555Z,1010.03
2023-05-19T10:23:11.365Z,1010.00
2023-05-19T10:24:11.648Z,1009.94
2023-05-19T10:25:12.171Z,1009.76
2023-05-19T10:26:11.915Z,1009.74
2023-05-19T10:27:12.404Z,1009.69
2023-05-19T10:28:12.414Z,1009.66
2023-05-19T10:29:11.954Z,1009.64
2023-05-19T10:30:14.345Z,1009.57
2023-05-19T10:31:12.868Z,1009.56
2023-05-19T10:32:12.550Z,1009.66
2023-05-19T10:33:12.791Z,1009.66
2023-05-19T10:34:13.449Z,1009.72
2023-05-19T10:35:13.869Z,1009.74
2023-05-19T10:36:14.295Z,1009.86
2023-05-19T10:37:14.419Z,1009.83
2023-05-19T10:38:14.415Z,1009.89
2023-05-19T10:39:13.819Z,1009.87
2023-05-19T10:40:13.949Z,1009.93
2023-05-19T10:41:15.371Z,1009.92
2023-05-19T10:42:14.956Z,1009.98
2023-05-19T10:43:14.521Z,1009.98
2023-05-19T10:44:14.719Z,1009.99
2023-05-19T10:45:15.412Z,1010.02
2023-05-19T10:46:16.448Z,1009.98
2023-05-19T10:47:15.265Z,1009.99
2023-05-19T10:48:16.918Z,1010.02
2023-05-19T10:49:15.649Z,1009.97
2023-05-19T10:50:16.421Z,1010.01
2023-05-19T10:51:15.949Z,1010.18
2023-05-19T10:52:16.156Z,1010.26
2023-05-19T10:53:16.929Z,1010.24
2023-05-19T10:54:16.604Z,1010.26
2023-05-19T10:55:16.766Z,1010.29
2023-05-19T10:56:50.330Z,1010.27
2023-05-19T10:57:17.958Z,1010.35
2023-05-19T10:58:17.959Z,1010.41
2023-05-19T10:59:17.471Z,1010.40
2023-05-19T11:00:18.421Z,1010.34
2023-05-19T11:01:17.849Z,1010.37
2023-05-19T11:02:18.054Z,1010.28
2023-05-19T11:03:19.094Z,1010.32
2023-05-19T11:04:19.959Z,1010.33
2023-05-19T11:05:18.960Z,1010.46
2023-05-19T11:06:19.414Z,1010.43
2023-05-19T11:07:18.821Z,1010.49
2023-05-19T11:08:19.926Z,1010.50
2023-05-19T11:09:22.552Z,1010.59
2023-05-19T11:10:21.614Z,1010.56
2023-05-19T11:11:19.532Z,1010.53
2023-05-19T11:12:21.426Z,1010.56
2023-05-19T11:13:20.466Z,1010.57
2023-05-19T11:14:20.199Z,1010.67
2023-05-19T11:15:20.400Z,1010.62
2023-05-19T11:16:20.997Z,1010.66
2023-05-19T11:17:20.814Z,1010.63
2023-05-19T11:18:21.042Z,1010.71
2023-05-19T11:19:22.962Z,1010.71
2023-05-19T11:20:21.404Z,1010.59
2023-05-19T11:21:22.339Z,1010.60
2023-05-19T11:22:21.756Z,1010.59
2023-05-19T11:23:23.018Z,1010.59
2023-05-19T11:24:22.976Z,1010.61
2023-05-19T11:25:22.927Z,1010.55
2023-05-19T11:26:22.542Z,1010.64
2023-05-19T11:27:22.683Z,1010.69
2023-05-19T11:28:22.775Z,1010.71
2023-05-19T11:29:23.968Z,1010.75
2023-05-19T11:30:23.136Z,1010.68
2023-05-19T11:31:23.317Z,1010.69
2023-05-19T11:32:23.517Z,1010.67
2023-05-19T11:33:25.800Z,1010.66
2023-05-19T11:34:23.978Z,1010.67
2023-05-19T11:35:24.189Z,1010.66
2023-05-19T11:36:25.005Z,1010.55
2023-05-19T11:37:25.934Z,1010.57
2023-05-19T11:38:24.712Z,1010.56
2023-05-19T11:39:24.949Z,1010.53
2023-05-19T11:40:25.013Z,1010.52
2023-05-19T11:41:25.982Z,1010.41
2023-05-19T11:42:25.409Z,1010.38
2023-05-19T11:43:25.611Z,1010.38
2023-05-19T11:44:25.735Z,1010.31
2023-05-19T11:45:25.908Z,1010.30
2023-05-19T11:46:27.180Z,1010.30
2023-05-19T11:47:26.958Z,1010.16
2023-05-19T11:48:27.460Z,1010.19
2023-05-19T11:49:26.658Z,1010.17
2023-05-19T11:50:27.931Z,1010.17
2023-05-19T11:51:27.938Z,1010.10
2023-05-19T11:52:27.206Z,1010.02
2023-05-19T11:53:27.929Z,1010.00
2023-05-19T11:54:28.431Z,1010.07
2023-05-19T11:55:27.995Z,1010.11
2023-05-19T11:56:27.833Z,1010.08
2023-05-19T11:57:28.016Z,1010.13
2023-05-19T11:58:28.980Z,1010.14
2023-05-19T11:59:28.299Z,1010.10
2023-05-19T12:00:28.518Z,1010.04
2023-05-19T12:01:28.732Z,1009.93
2023-05-19T12:02:29.570Z,1009.97
2023-05-19T12:03:29.218Z,1009.89
2023-05-19T12:04:29.975Z,1009.84
2023-05-19T12:05:29.628Z,1009.77
2023-05-19T12:06:29.831Z,1009.78
2023-05-19T12:07:29.881Z,1009.72